หน้าหลัก
METAR-TAF:

METAR-TAF

ท่าอากาศยาน :

Providenciales, หมู่เกาะเติกส์และหมู่เกาะเคคอส

ละติจูด: 21-46-25N, ลองจิจูด: 072-15-57W, ความสูง: 5 ม.

การสังเกตสภาพอากาศปัจจุบัน

รายงานได้ทำขึ้นเมื่อ 10 นาทีที่แล้ว ณ เวลา 22:00 UTC
ลม 4 นอตจากตะวันตกเฉียงเหนือ
อุณหภูมิ 30°C
ความชื้น 59%
ความกดอากาศ 1011 hPa
ทัศนวิสัย 10 กม. หรือมากกว่า
มีเมฆกระจายเป็นบางส่วนที่ความสูง 1500 ฟุต

METAR: MBPV 242200Z 31004KT 9999 SCT015 30/21 Q1011

เวลา: 18:10 (22:10 UTC)

การพยากรณ์

รายงานได้ทำขึ้นเมื่อ 5 ชั่วโมงและ 10 นาทีที่แล้ว ณ เวลา 17:00 UTC
การพยากรณ์มีผลตั้งแต่วันที่ 24 ณ เวลา 18 UTC จนถึงวันที่ 25 ณ เวลา 18 UTC
ลม 8 นอตจากตะวันตก/ตะวันตกเฉียงเหนือ
ทัศนวิสัย 10 กม. หรือมากกว่า
มีเมฆน้อยที่ความสูง 1500 ฟุต, คิวมูโลนิมบัส.
มีเมฆกระจายเป็นบางส่วนที่ความสูง 1800 ฟุต
จาก 25 ณ เวลา 0000 UTC
ลม 3 นอตจากเหนือ/ตะวันตกเฉียงเหนือ
ทัศนวิสัย 10 กม. หรือมากกว่า
มีเมฆกระจายเป็นบางส่วนที่ความสูง 2000 ฟุต
มีเมฆกระจายเป็นบางส่วนที่ความสูง 5000 ฟุต

TAF: MBPV 241700Z 2418/2518 30008KT 9999 FEW015CB SCT018 FM250000 34003KT 9999 SCT020 SCT050

สังเกตการณ์สภาพอากาศและพยากรณ์อากาศของสนามบินมากกว่า 4000 แห่ง (รายงาน METAR และ TAF).

สถานีที่ดูได้จะแสดงไว้ด้วยจุดสีเหลืองและสีแดงบนแผนที่.

เลื่อนเมาส์ไปเหนือจุดเพื่อดูชื่อสถานี.

แล้วคลิกเพื่อดูสังเกตการณ์และการพยากรณ์สภาพอากาศ.

ในการเปลี่ยนแผนที่: คลิกที่ปุ่มสีเขียวที่มีกากบาทสีดำเพื่อซูมเข้า; ที่ปุ่มสีเขียวที่มีขีดเพื่อซูมออก; หรือที่ลูกศรสีเขียวเพื่อไปยังแผนที่ที่อยู่ติดกัน.


METAR-TAF: